Página principal
METAR-TAF:

METAR-TAF

Aeroportos :

Pequim, China

Aeroporto Internacional de Pequim

latitude: 39-56N, longitude: 116-17E, altura: 55 m

Observação actual do tempo

O boletim foi feito há 18 minutos, às 21:00 UTC
Vento 2 kt com direcção variável
Temperatura 18°C
Humidade 83%
Pressão 1003 hPa
Visibilidade: 5000 m
bruma

METAR: ZBAA 272100Z VRB01MPS 5000 HZ NSC 18/15 Q1003 NOSIG

Hora: 05:18 (21:18 UTC)

Previsão

O boletim foi feito há 5 horas e 48 minutos, às 15:30 UTC
Previsão válida de 27 às 18 UTC a 28 às 18 UTC
Vento 8 kt de norte
Visibilidade 10 km ou mais
sem nuvens abaixo de 1500 metros e sem cumulonimbus
Tornando-se
de 28 às 02 UTC a 28 às 03 UTC
Vento 12 kt de es-nordeste

TAF: ZBAA 271530Z 2718/2818 01004MPS CAVOK TX30/2807Z TN17/2721Z BECMG 2802/2803 07006MPS

Observações e previsões do tempo de mais de 4000 aeroportos (mensagens METAR e TAF).

As estações disponíveis são os pontos amarelos e vermelhos sobre o mapa.

Mova o rato sobre o mapa para ver o nome da estação.

Depois clique no ponto para visualizar as observações e previsões meteorológicas.

Para alterar o mapa : clique nos botões verdes com uma cruz preta para aumentar o zoom; no botão verde com uma pitada de zoom; ou nas setas verdes para mapas adjacentes.


METAR-TAF: